Madison, New Hampshire
Current Conditions -  °F | °C
As of 2:54 AM on Monday 26 Jan 2015 (Local Time) from KIZG Reporting Station
Clear Clear  
Wind Chill: -8°   Ceiling: Unl
Heat Index: -8°   Visibility: 10mi
Dew Point: -13°   Wind: 0mph
Humidity: 79%   Direction: NA
Pressure: 30.07"   Gusts: NA
Location:  43.9°N, 71.15°W
Report Text: KIZG 260754Z AUTO 00000KT 10SM CLR M22/M25 A3007 RMK AO2 SLP194 T12221250
Loading
Personal Weather Stations






























Interactive Weather Map New forecast layout! Learn more

10-Day Weather Forecast

Advertisements
Track Severe Weather on mobile